Terminal Aerodrome Forecast
Issued by NWS

Home | Current Version | Previous Version | Text Only | Print | Product List | Glossary On
Versions: 1 2 3 4 5 6 7 8 9 10 11 12 13 14 15 16
000
FTUS46 KSEW 261736
TAFOLM
TAF
KOLM 261736Z 2618/2718 24008KT P6SM BKN040
     FM262000 23011G18KT P6SM SCT040
     FM270100 25014G20KT P6SM VCSH BKN040
     FM270500 23011KT P6SM VCSH BKN025 OVC040
     FM271200 20010KT P6SM VCSH OVC025=

USA.gov is the U.S. government's official web portal to all federal, state and local government web resources and services.